Time;durP1;ratioP1;P1;durP2;ratioP2;P2;SDS_P1;SDS_P2;PMS_P1;PMS_P2;Temp;Humidity;BMP_temperature;BMP_pressure;BME280_temperature;BME280_humidity;BME280_pressure;Samples;Min_cycle;Max_cycle;Signal;HPM_P1;HPM_P2
2022/04/30 05:01:08;;;;;;;19.27;13.48;;;10.90;99.90;;;;;;5748728;23;20515;-84
2022/04/30 05:03:35;;;;;;;18.92;13.35;;;10.80;99.90;;;;;;5037376;28;20820;-86
2022/04/30 05:06:02;;;;;;;17.50;12.18;;;10.80;99.90;;;;;;5036799;28;20073;-87
2022/04/30 05:08:29;;;;;;;18.80;12.25;;;10.90;99.90;;;;;;5041301;28;20041;-86
2022/04/30 05:10:57;;;;;;;17.08;12.07;;;10.90;99.90;;;;;;5048676;28;20040;-85
2022/04/30 05:13:24;;;;;;;17.98;11.80;;;10.80;99.90;;;;;;5033199;28;20125;-83
2022/04/30 05:15:51;;;;;;;17.63;12.38;;;10.80;99.90;;;;;;5033178;28;20073;-87
2022/04/30 05:18:20;;;;;;;20.35;13.45;;;10.80;99.90;;;;;;5032204;28;20521;-84
2022/04/30 05:20:47;;;;;;;17.95;12.30;;;10.70;99.90;;;;;;5031698;28;20132;-84
2022/04/30 05:23:15;;;;;;;20.83;12.93;;;10.80;99.90;;;;;;5030740;28;20473;-83
2022/04/30 05:25:42;;;;;;;16.58;11.70;;;10.90;99.90;;;;;;5032965;28;20045;-83
2022/04/30 05:28:10;;;;;;;19.52;13.05;;;10.90;99.90;;;;;;5031378;28;20124;-82
2022/04/30 05:30:37;;;;;;;19.27;12.52;;;10.90;99.90;;;;;;5032718;28;20045;-81
2022/04/30 05:33:05;;;;;;;19.67;13.23;;;11.00;99.90;;;;;;5032229;28;20053;-84
2022/04/30 05:35:33;;;;;;;17.65;12.30;;;10.90;99.90;;;;;;5031480;28;20722;-84
2022/04/30 05:38:00;;;;;;;18.45;12.75;;;10.90;99.90;;;;;;5023439;28;20501;-79
2022/04/30 05:40:28;;;;;;;21.65;14.70;;;10.90;99.90;;;;;;5032470;28;20143;-83
2022/04/30 05:42:55;;;;;;;20.88;13.88;;;10.70;99.90;;;;;;5033042;28;20072;-83
2022/04/30 05:45:22;;;;;;;21.85;13.68;;;10.70;99.90;;;;;;5031747;28;20049;-83
2022/04/30 05:47:49;;;;;;;20.63;12.68;;;10.70;99.90;;;;;;5032434;28;20136;-84
2022/04/30 05:50:16;;;;;;;18.85;12.80;;;10.80;99.90;;;;;;5032446;28;20057;-85
2022/04/30 05:52:45;;;;;;;17.23;11.27;;;10.90;99.90;;;;;;5027301;28;20473;-85
2022/04/30 05:55:12;;;;;;;18.17;12.98;;;11.10;99.90;;;;;;5031347;28;20142;-79
2022/04/30 05:57:41;;;;;;;20.33;14.13;;;11.10;99.90;;;;;;5032222;28;20081;-80
2022/04/30 06:00:10;;;;;;;21.77;14.20;;;11.10;99.90;;;;;;5031079;28;20085;-80
2022/04/30 06:02:37;;;;;;;20.63;13.20;;;11.10;99.90;;;;;;5030121;28;20685;-80
2022/04/30 06:05:06;;;;;;;17.85;12.50;;;11.20;99.90;;;;;;5031520;28;20498;-82
2022/04/30 06:07:33;;;;;;;20.58;13.93;;;11.20;99.90;;;;;;5029157;28;20076;-80
2022/04/30 06:10:01;;;;;;;22.35;14.25;;;11.10;99.90;;;;;;5028769;28;20091;-80
2022/04/30 06:12:29;;;;;;;19.20;13.98;;;11.10;99.90;;;;;;5026801;28;20049;-80
2022/04/30 06:14:56;;;;;;;21.00;14.23;;;11.20;99.90;;;;;;5032106;28;20380;-79
2022/04/30 06:17:23;;;;;;;21.70;15.07;;;11.20;99.90;;;;;;5030918;28;20073;-79
2022/04/30 06:19:50;;;;;;;20.90;14.65;;;11.20;99.90;;;;;;5031120;28;20053;-82
2022/04/30 06:22:18;;;;;;;22.23;15.30;;;11.30;99.90;;;;;;5031487;28;20060;-88
2022/04/30 06:24:45;;;;;;;20.10;14.55;;;11.30;99.90;;;;;;5032726;28;20087;-87
2022/04/30 06:27:14;;;;;;;22.35;15.25;;;11.30;99.90;;;;;;5031719;28;20052;-85
2022/04/30 06:29:41;;;;;;;24.63;17.48;;;11.20;99.90;;;;;;5032039;28;20095;-88
2022/04/30 06:32:10;;;;;;;27.23;18.05;;;11.00;99.90;;;;;;5040345;28;20046;-89
2022/04/30 06:34:57;;;;;;;24.33;17.40;;;10.90;99.90;;;;;;5049357;28;20065;-86
2022/04/30 06:37:24;;;;;;;24.52;16.50;;;11.00;99.90;;;;;;5044221;28;20095;-88
2022/04/30 06:39:52;;;;;;;27.25;16.98;;;11.10;99.90;;;;;;5033614;28;20049;-89
2022/04/30 06:42:21;;;;;;;25.15;17.77;;;11.10;99.90;;;;;;5031804;28;20640;-89
2022/04/30 06:44:48;;;;;;;26.08;18.20;;;11.10;99.90;;;;;;5034181;28;20057;-88
2022/04/30 06:47:16;;;;;;;27.90;18.63;;;11.00;99.90;;;;;;5033005;28;20085;-88
2022/04/30 06:49:43;;;;;;;27.45;19.20;;;11.00;99.90;;;;;;5036194;28;20088;-86
2022/04/30 06:52:10;;;;;;;29.77;20.08;;;11.00;99.90;;;;;;5031605;28;20139;-85
2022/04/30 06:57:26;;;;;;;26.95;18.20;;;11.00;99.90;;;;;;5032044;28;20052;-79
2022/04/30 06:59:55;;;;;;;25.52;18.08;;;11.10;99.90;;;;;;5032118;28;20080;-79
2022/04/30 07:02:22;;;;;;;29.17;17.98;;;11.20;99.90;;;;;;5029339;28;20057;-80
2022/04/30 07:04:52;;;;;;;28.08;18.60;;;11.20;99.90;;;;;;5033852;28;20049;-81
2022/04/30 07:07:19;;;;;;;29.35;20.15;;;11.20;99.90;;;;;;5030759;28;20136;-80
2022/04/30 07:09:50;;;;;;;32.22;20.83;;;11.10;99.90;;;;;;5013864;28;20356;-79
2022/04/30 07:12:18;;;;;;;29.73;19.83;;;11.10;99.90;;;;;;5013627;28;20046;-80
2022/04/30 07:14:48;;;;;;;28.40;18.80;;;11.10;99.90;;;;;;5013248;28;20450;-78
2022/04/30 07:17:16;;;;;;;28.70;19.35;;;11.10;99.90;;;;;;5013238;28;20065;-79
2022/04/30 07:19:44;;;;;;;29.38;20.48;;;11.10;99.90;;;;;;5012759;28;20076;-79
2022/04/30 07:22:11;;;;;;;32.90;21.75;;;10.90;99.90;;;;;;5012909;28;20136;-80
2022/04/30 07:24:38;;;;;;;31.73;21.50;;;11.00;99.90;;;;;;5012794;28;20045;-79
2022/04/30 07:27:08;;;;;;;35.55;23.58;;;11.00;99.90;;;;;;5012768;28;20073;-78
2022/04/30 07:29:38;;;;;;;31.10;21.33;;;11.00;99.90;;;;;;5012998;28;20081;-79
2022/04/30 07:32:12;;;;;;;32.10;21.35;;;11.00;99.90;;;;;;5012697;28;20071;-78
2022/04/30 07:34:41;;;;;;;30.10;20.92;;;11.10;99.90;;;;;;5012769;28;20050;-80
2022/04/30 07:37:10;;;;;;;28.25;20.15;;;11.00;99.90;;;;;;5012601;28;20410;-78
2022/04/30 07:39:38;;;;;;;32.17;21.38;;;11.20;99.90;;;;;;5012666;28;20140;-79
2022/04/30 07:42:11;;;;;;;33.97;22.00;;;11.20;99.90;;;;;;5012674;28;20487;-79
2022/04/30 07:44:39;;;;;;;28.70;20.35;;;11.20;99.90;;;;;;5012828;28;20064;-78
2022/04/30 07:47:06;;;;;;;29.52;21.75;;;11.30;99.90;;;;;;5012440;28;20495;-78
2022/04/30 07:49:38;;;;;;;31.27;20.95;;;11.40;99.90;;;;;;5012498;28;20054;-79
2022/04/30 07:52:06;;;;;;;30.75;19.40;;;11.20;99.90;;;;;;5012557;28;20050;-79
2022/04/30 07:54:34;;;;;;;31.20;20.75;;;11.20;99.90;;;;;;5012342;28;20526;-80
2022/04/30 07:57:01;;;;;;;28.73;20.35;;;11.30;99.90;;;;;;5012395;28;20054;-80
2022/04/30 07:59:28;;;;;;;29.95;19.98;;;11.30;99.90;;;;;;5016077;28;20136;-79
2022/04/30 08:01:55;;;;;;;28.90;20.60;;;11.30;99.90;;;;;;5004675;28;20069;-80
2022/04/30 08:04:26;;;;;;;26.98;18.92;;;11.30;99.90;;;;;;4997190;28;20208;-78
2022/04/30 08:06:54;;;;;;;25.98;18.58;;;11.20;99.90;;;;;;4996735;28;20090;-80
2022/04/30 08:09:21;;;;;;;29.63;19.83;;;11.20;99.90;;;;;;5007758;28;20571;-79
2022/04/30 08:11:48;;;;;;;30.52;20.35;;;11.10;99.90;;;;;;5016381;28;20100;-80
2022/04/30 08:14:17;;;;;;;27.50;18.80;;;11.20;99.90;;;;;;5016205;28;20144;-79
2022/04/30 08:16:44;;;;;;;28.02;18.73;;;11.40;99.90;;;;;;5016331;28;20050;-80
2022/04/30 08:19:14;;;;;;;28.55;18.60;;;11.40;99.90;;;;;;5016142;28;20088;-79
2022/04/30 08:21:44;;;;;;;27.67;18.13;;;11.40;99.90;;;;;;5016334;28;20136;-79
2022/04/30 08:24:12;;;;;;;26.15;17.70;;;11.50;99.90;;;;;;5016232;28;20049;-78
2022/04/30 08:26:40;;;;;;;26.05;18.10;;;11.50;99.90;;;;;;5016686;28;20133;-79
2022/04/30 08:29:07;;;;;;;23.67;17.30;;;11.60;99.90;;;;;;5018791;28;20080;-79
2022/04/30 08:31:34;;;;;;;23.92;16.77;;;11.60;99.90;;;;;;5017269;28;20052;-80
2022/04/30 08:34:01;;;;;;;24.65;17.08;;;11.60;99.90;;;;;;5016064;28;20054;-79
2022/04/30 08:36:28;;;;;;;26.00;16.83;;;11.60;99.90;;;;;;5015890;28;20049;-78
2022/04/30 08:38:56;;;;;;;28.80;19.20;;;11.60;99.90;;;;;;5015907;28;20284;-80
2022/04/30 08:41:24;;;;;;;22.75;15.60;;;11.40;99.90;;;;;;5016014;28;20125;-79
2022/04/30 08:43:51;;;;;;;23.38;15.63;;;11.50;99.90;;;;;;5015990;28;20145;-81
2022/04/30 08:46:21;;;;;;;20.13;15.32;;;11.50;99.90;;;;;;5015647;28;20133;-80
2022/04/30 08:48:49;;;;;;;23.15;15.98;;;11.50;99.90;;;;;;5008198;28;20053;-79
2022/04/30 08:51:17;;;;;;;20.75;15.50;;;11.50;99.90;;;;;;5015636;28;20454;-80
2022/04/30 08:53:44;;;;;;;23.70;16.58;;;11.50;99.90;;;;;;5015444;28;20052;-79
2022/04/30 08:56:12;;;;;;;22.08;15.98;;;11.40;99.90;;;;;;5015667;28;20132;-81
2022/04/30 08:58:40;;;;;;;19.63;14.63;;;11.50;99.90;;;;;;5015843;28;20088;-80
2022/04/30 09:01:10;;;;;;;19.92;13.77;;;11.40;99.90;;;;;;5015527;28;20058;-81
2022/04/30 09:03:39;;;;;;;19.88;14.88;;;11.40;99.90;;;;;;5017323;28;20100;-79
2022/04/30 09:06:07;;;;;;;22.65;15.80;;;11.40;99.90;;;;;;5016100;28;20045;-81
2022/04/30 09:08:35;;;;;;;25.10;16.95;;;11.30;99.90;;;;;;5016152;28;20402;-80
2022/04/30 09:11:07;;;;;;;23.55;16.67;;;11.30;99.90;;;;;;5014402;28;20129;-81
2022/04/30 09:13:44;;;;;;;23.25;16.05;;;11.30;99.90;;;;;;5014951;28;20487;-79
2022/04/30 09:16:20;;;;;;;23.35;16.30;;;11.10;99.90;;;;;;5015433;28;20403;-80
2022/04/30 09:18:48;;;;;;;21.40;15.55;;;11.10;99.90;;;;;;5015402;28;20048;-81
2022/04/30 09:21:17;;;;;;;23.52;16.13;;;11.20;99.90;;;;;;5015021;28;20463;-80
2022/04/30 09:23:46;;;;;;;21.92;14.63;;;11.10;99.90;;;;;;5006939;28;20049;-80
2022/04/30 09:26:13;;;;;;;19.77;14.82;;;11.30;99.90;;;;;;5014993;28;20061;-80
2022/04/30 09:28:46;;;;;;;22.48;15.27;;;11.30;99.90;;;;;;5015091;28;20089;-79
2022/04/30 09:31:16;;;;;;;21.40;15.60;;;11.40;99.90;;;;;;5015028;28;20057;-80
2022/04/30 09:33:55;;;;;;;20.35;14.60;;;11.40;99.90;;;;;;5015009;28;20136;-80
2022/04/30 09:39:17;;;;;;;15.68;12.50;;;11.30;99.90;;;;;;5014599;28;20564;-79
2022/04/30 09:41:44;;;;;;;17.30;12.55;;;11.30;99.90;;;;;;5014598;28;20050;-79
2022/04/30 09:44:16;;;;;;;14.90;11.27;;;11.30;99.90;;;;;;5015305;28;20066;-79
2022/04/30 09:46:43;;;;;;;17.95;12.98;;;11.50;99.90;;;;;;5014984;28;20136;-78
2022/04/30 09:54:48;;;;;;;14.02;10.45;;;12.10;99.90;;;;;;4981433;28;20053;-78
2022/04/30 09:57:16;;;;;;;14.23;9.43;;;12.10;99.90;;;;;;5014483;28;20056;-79
2022/04/30 09:59:53;;;;;;;15.30;9.75;;;12.20;99.90;;;;;;5014218;28;20046;-80
2022/04/30 10:02:21;;;;;;;14.23;10.48;;;12.20;99.90;;;;;;5014185;28;20144;-80
2022/04/30 10:04:48;;;;;;;13.88;9.88;;;12.10;99.90;;;;;;5014076;28;20529;-80
2022/04/30 10:07:21;;;;;;;12.00;9.05;;;12.00;99.90;;;;;;5014123;28;20141;-79
2022/04/30 10:10:00;;;;;;;12.85;9.38;;;12.00;99.90;;;;;;5000527;28;20046;-79
2022/04/30 10:12:33;;;;;;;10.43;7.93;;;12.10;99.90;;;;;;4994647;28;20073;-79
2022/04/30 10:15:15;;;;;;;10.02;8.00;;;12.20;99.90;;;;;;4994645;28;20129;-81
2022/04/30 10:17:47;;;;;;;12.65;9.43;;;12.10;99.90;;;;;;4994328;28;20058;-80
2022/04/30 10:20:18;;;;;;;11.82;9.15;;;12.10;99.90;;;;;;4994437;28;20046;-79
2022/04/30 10:22:52;;;;;;;11.02;7.85;;;12.10;99.90;;;;;;4992549;28;20054;-79
2022/04/30 10:25:32;;;;;;;10.38;7.57;;;12.20;99.90;;;;;;4994207;28;20507;-80
2022/04/30 10:27:59;;;;;;;9.55;7.15;;;11.80;99.90;;;;;;4994240;28;20051;-79
2022/04/30 10:30:28;;;;;;;9.50;7.30;;;11.90;99.90;;;;;;4993829;28;20526;-81
2022/04/30 10:33:00;;;;;;;8.88;6.47;;;11.70;99.90;;;;;;4994059;28;20043;-80
2022/04/30 10:35:35;;;;;;;9.80;6.88;;;12.00;99.90;;;;;;4994006;28;20574;-79
2022/04/30 10:38:15;;;;;;;9.85;6.90;;;12.00;99.90;;;;;;4994043;28;20125;-78
2022/04/30 10:40:47;;;;;;;8.70;6.80;;;12.10;99.90;;;;;;4993885;28;20162;-79
2022/04/30 10:43:28;;;;;;;8.07;5.75;;;11.80;99.90;;;;;;4993991;28;20054;-79
2022/04/30 10:45:56;;;;;;;8.50;6.20;;;11.90;99.90;;;;;;4993892;28;20053;-78
2022/04/30 10:48:24;;;;;;;8.30;6.22;;;11.80;99.90;;;;;;4996076;28;20058;-80
2022/04/30 10:51:04;;;;;;;9.10;6.53;;;11.70;99.90;;;;;;4995626;28;20051;-80
2022/04/30 10:53:32;;;;;;;9.20;6.38;;;11.80;99.90;;;;;;4995082;28;20046;-80
2022/04/30 10:56:02;;;;;;;7.65;5.30;;;11.90;99.90;;;;;;4993692;28;20077;-79
2022/04/30 10:58:30;;;;;;;8.63;5.90;;;12.00;99.90;;;;;;4993491;28;20073;-79
2022/04/30 11:01:10;;;;;;;9.18;6.45;;;11.90;99.90;;;;;;4993267;28;20129;-81
2022/04/30 11:03:38;;;;;;;8.23;5.55;;;11.90;99.90;;;;;;4993647;28;20087;-79
2022/04/30 11:06:05;;;;;;;8.55;6.28;;;12.10;99.90;;;;;;4993456;28;20053;-80
2022/04/30 11:08:34;;;;;;;7.68;6.03;;;12.40;99.90;;;;;;4993344;28;20080;-80
2022/04/30 11:11:01;;;;;;;8.80;5.88;;;12.70;99.90;;;;;;4993619;28;20085;-80
2022/04/30 11:13:28;;;;;;;7.13;5.05;;;12.50;99.90;;;;;;4993637;28;20137;-80
2022/04/30 11:16:00;;;;;;;7.05;5.20;;;12.60;99.90;;;;;;4993203;28;20478;-81
2022/04/30 11:18:28;;;;;;;7.88;5.20;;;12.90;99.90;;;;;;4993608;28;20086;-81
2022/04/30 11:21:00;;;;;;;7.68;5.07;;;13.00;99.90;;;;;;4993430;28;20148;-79
2022/04/30 11:23:30;;;;;;;7.70;4.90;;;13.20;99.90;;;;;;4993299;28;20046;-81
2022/04/30 11:25:57;;;;;;;7.07;4.93;;;13.20;99.90;;;;;;4993146;28;20058;-79
2022/04/30 11:28:30;;;;;;;6.43;5.00;;;13.20;99.90;;;;;;4993172;28;20050;-80
2022/04/30 11:31:02;;;;;;;6.22;4.60;;;13.30;99.90;;;;;;4993288;28;20097;-79
2022/04/30 11:33:34;;;;;;;8.05;5.57;;;13.40;99.90;;;;;;4992676;28;20480;-78
2022/04/30 11:36:01;;;;;;;7.10;4.53;;;13.20;99.90;;;;;;4993201;28;20042;-80
2022/04/30 11:38:28;;;;;;;8.65;5.60;;;13.30;99.90;;;;;;4992939;28;20137;-81
2022/04/30 11:41:04;;;;;;;6.88;4.93;;;13.20;99.90;;;;;;4992956;28;20560;-80
2022/04/30 11:43:31;;;;;;;6.00;4.50;;;13.20;99.90;;;;;;4993216;28;20049;-79
2022/04/30 11:46:03;;;;;;;6.30;4.50;;;13.10;99.90;;;;;;4992940;28;20057;-80
2022/04/30 11:48:38;;;;;;;7.68;5.45;;;13.10;99.90;;;;;;4992827;28;20148;-80
2022/04/30 11:51:06;;;;;;;7.80;5.00;;;12.80;99.90;;;;;;4992988;28;20057;-79
2022/04/30 11:53:33;;;;;;;7.80;5.65;;;12.80;99.90;;;;;;4992870;28;20085;-80
2022/04/30 11:56:01;;;;;;;7.13;5.20;;;12.80;99.90;;;;;;4992851;28;20054;-78
2022/04/30 11:58:40;;;;;;;7.28;5.32;;;12.70;99.90;;;;;;4993128;28;20137;-80
2022/04/30 12:01:23;;;;;;;6.32;4.75;;;12.80;99.90;;;;;;4992554;28;20089;-79
2022/04/30 12:03:59;;;;;;;6.00;4.47;;;12.90;99.90;;;;;;4992791;28;20134;-79
2022/04/30 12:06:28;;;;;;;6.80;4.95;;;13.00;99.90;;;;;;4992917;28;20093;-79
2022/04/30 12:08:56;;;;;;;8.65;5.55;;;13.00;99.90;;;;;;4992758;28;20551;-78
2022/04/30 12:11:23;;;;;;;7.43;5.10;;;12.90;99.90;;;;;;4992859;28;20562;-79
2022/04/30 12:14:00;;;;;;;6.90;5.25;;;13.00;99.90;;;;;;4992910;28;20575;-81
2022/04/30 12:16:36;;;;;;;7.20;5.20;;;12.90;99.90;;;;;;4992808;28;20050;-80
2022/04/30 12:24:49;;;;;;;;;;;12.60;99.90;;;;;;4993068;28;20085;-80
2022/04/30 12:27:23;;;;;;;9.38;7.32;;;12.60;99.90;;;;;;4992854;28;20330;-81
2022/04/30 12:30:01;;;;;;;8.18;6.20;;;12.60;99.90;;;;;;4992972;28;20061;-78
2022/04/30 12:32:30;;;;;;;7.10;5.70;;;12.60;99.90;;;;;;4994981;28;20077;-79
2022/04/30 12:34:58;;;;;;;7.75;5.68;;;12.80;99.90;;;;;;4994452;28;20074;-81
2022/04/30 12:37:33;;;;;;;6.75;4.88;;;12.90;99.90;;;;;;4992772;28;20054;-80
2022/04/30 12:40:00;;;;;;;7.05;4.60;;;13.20;99.90;;;;;;4992438;28;20090;-80
2022/04/30 12:42:28;;;;;;;7.68;5.43;;;13.30;99.90;;;;;;4992276;28;20093;-79
2022/04/30 12:44:55;;;;;;;8.00;4.78;;;13.30;99.90;;;;;;4993262;28;20090;-78
2022/04/30 12:47:22;;;;;;;5.97;3.80;;;13.10;99.90;;;;;;4996012;28;20092;-78
2022/04/30 12:49:51;;;;;;;5.00;3.65;;;13.20;99.90;;;;;;4996014;28;20054;-79
2022/04/30 12:52:18;;;;;;;7.40;4.35;;;13.20;99.90;;;;;;4995830;28;20081;-80
2022/04/30 12:54:45;;;;;;;5.63;3.92;;;13.20;99.90;;;;;;4995909;28;20133;-79
2022/04/30 12:57:12;;;;;;;5.75;3.80;;;13.10;99.90;;;;;;4995739;28;20477;-80
2022/04/30 12:59:39;;;;;;;5.90;4.10;;;13.10;99.90;;;;;;4998728;28;20130;-81
2022/04/30 13:02:08;;;;;;;6.15;4.32;;;13.20;99.90;;;;;;5002963;28;20062;-80
2022/04/30 13:04:37;;;;;;;5.47;3.83;;;13.10;99.90;;;;;;4999942;28;20077;-79
2022/04/30 13:07:06;;;;;;;6.80;4.30;;;13.10;99.90;;;;;;4996877;28;20133;-80
2022/04/30 13:15:02;;;;;;;5.10;3.80;;;12.50;99.90;;;;;;4996727;28;20523;-79
2022/04/30 13:17:29;;;;;;;4.68;3.72;;;12.80;99.90;;;;;;4996009;28;20078;-79
2022/04/30 13:19:56;;;;;;;6.80;3.72;;;12.80;99.90;;;;;;4995556;28;20149;-79
2022/04/30 13:22:25;;;;;;;4.75;3.22;;;12.80;99.90;;;;;;4995171;28;20507;-80
2022/04/30 13:24:52;;;;;;;5.50;3.90;;;12.80;99.90;;;;;;4995491;28;20165;-78
2022/04/30 13:27:19;;;;;;;5.15;3.65;;;13.20;99.90;;;;;;4995308;28;20056;-80
2022/04/30 13:29:46;;;;;;;7.25;3.33;;;13.40;99.90;;;;;;4995006;28;20141;-79
2022/04/30 13:32:13;;;;;;;4.82;3.45;;;13.50;99.90;;;;;;4995284;28;20053;-80
2022/04/30 13:34:40;;;;;;;4.65;3.33;;;13.50;99.90;;;;;;4995681;28;20467;-79
2022/04/30 13:37:09;;;;;;;5.30;3.22;;;13.50;99.90;;;;;;4995095;28;20078;-80
2022/04/30 13:39:38;;;;;;;5.25;3.60;;;13.60;99.90;;;;;;4995434;28;20082;-78
2022/04/30 13:42:06;;;;;;;4.72;3.17;;;13.50;99.90;;;;;;4995196;28;20475;-78
2022/04/30 13:44:34;;;;;;;4.28;2.63;;;13.80;99.90;;;;;;4995112;28;20145;-78
2022/04/30 13:47:01;;;;;;;4.35;2.75;;;13.90;99.90;;;;;;4994852;28;20050;-79
2022/04/30 13:49:28;;;;;;;4.03;2.20;;;13.90;99.90;;;;;;4994664;28;20084;-78
2022/04/30 13:51:56;;;;;;;4.22;2.45;;;14.20;99.40;;;;;;4995034;28;20062;-78
2022/04/30 13:54:23;;;;;;;3.90;2.30;;;14.50;99.20;;;;;;4994992;28;20498;-79
2022/04/30 13:56:53;;;;;;;3.30;2.20;;;14.80;99.30;;;;;;4994602;28;20093;-78
2022/04/30 13:59:21;;;;;;;4.28;2.60;;;14.70;97.70;;;;;;4994785;28;20480;-78
2022/04/30 14:01:49;;;;;;;3.75;2.20;;;14.10;98.70;;;;;;4995080;28;20054;-79
2022/04/30 14:04:16;;;;;;;3.90;2.00;;;14.10;98.00;;;;;;4994502;28;20054;-79
2022/04/30 14:06:43;;;;;;;3.30;1.90;;;14.00;98.10;;;;;;4994497;28;20082;-78
2022/04/30 14:09:10;;;;;;;3.00;1.75;;;14.20;98.10;;;;;;4994581;28;20108;-78
2022/04/30 14:11:37;;;;;;;3.30;1.88;;;14.80;98.10;;;;;;4994468;28;20129;-79
2022/04/30 14:16:53;;;;;;;3.33;2.10;;;15.20;98.00;;;;;;4994377;28;20426;-78
2022/04/30 14:19:29;;;;;;;3.92;2.40;;;14.70;95.20;;;;;;4994403;28;20380;-79
2022/04/30 14:21:56;;;;;;;4.25;2.40;;;14.40;96.10;;;;;;4994498;28;20110;-77
2022/04/30 14:24:23;;;;;;;3.88;2.65;;;14.30;97.40;;;;;;4994236;28;20088;-77
2022/04/30 14:26:50;;;;;;;4.03;2.80;;;14.60;97.10;;;;;;4994229;28;20057;-78
2022/04/30 14:29:18;;;;;;;5.25;3.97;;;15.00;97.70;;;;;;4993951;28;20133;-80
2022/04/30 14:31:46;;;;;;;6.13;4.22;;;14.40;98.40;;;;;;4994139;28;20226;-78
2022/04/30 14:34:14;;;;;;;5.55;3.78;;;14.90;97.70;;;;;;4993945;28;20093;-78
2022/04/30 14:36:41;;;;;;;7.07;5.35;;;14.70;98.30;;;;;;4994045;28;20133;-79
2022/04/30 14:39:08;;;;;;;7.30;5.15;;;14.80;97.60;;;;;;4993695;28;20084;-79
2022/04/30 14:41:35;;;;;;;7.60;5.57;;;14.80;98.00;;;;;;4993719;28;20088;-79
2022/04/30 14:44:02;;;;;;;7.72;5.07;;;14.80;97.70;;;;;;4993687;28;20495;-80
2022/04/30 14:46:31;;;;;;;8.43;5.72;;;14.50;98.70;;;;;;4993914;28;20133;-79
2022/04/30 14:48:58;;;;;;;6.80;5.10;;;14.20;98.60;;;;;;4993764;28;20555;-80
2022/04/30 14:51:25;;;;;;;6.35;4.28;;;14.10;98.80;;;;;;4993646;28;20054;-81
2022/04/30 14:53:52;;;;;;;7.63;5.93;;;14.40;99.00;;;;;;4993766;28;20130;-79
2022/04/30 14:56:19;;;;;;;8.25;5.70;;;14.80;99.00;;;;;;4993488;28;20077;-79
2022/04/30 14:58:47;;;;;;;8.48;6.30;;;14.90;98.00;;;;;;4993412;28;20082;-78
2022/04/30 15:01:14;;;;;;;8.80;6.30;;;14.80;98.00;;;;;;4993327;28;20468;-77
2022/04/30 15:03:43;;;;;;;9.30;7.05;;;14.00;99.10;;;;;;4993698;28;20074;-78
2022/04/30 15:06:11;;;;;;;8.93;6.10;;;14.00;99.70;;;;;;4993214;28;20048;-78
2022/04/30 15:08:38;;;;;;;12.75;9.48;;;14.00;99.00;;;;;;4992698;28;20495;-78
2022/04/30 15:11:05;;;;;;;8.73;6.32;;;14.10;99.60;;;;;;4993102;28;20141;-78
2022/04/30 15:13:33;;;;;;;6.80;5.15;;;14.10;98.10;;;;;;4993370;28;20137;-77
2022/04/30 15:16:01;;;;;;;6.72;5.03;;;14.30;97.60;;;;;;4993227;28;20042;-79
2022/04/30 15:18:28;;;;;;;6.78;4.88;;;14.40;97.10;;;;;;4993329;28;20046;-78
2022/04/30 15:20:56;;;;;;;8.00;6.50;;;14.50;97.50;;;;;;4993322;28;20507;-79
2022/04/30 15:23:23;;;;;;;7.82;5.70;;;15.50;96.90;;;;;;4993374;28;20089;-79
2022/04/30 15:25:52;;;;;;;8.18;5.20;;;15.80;95.20;;;;;;4993474;28;20058;-79
2022/04/30 15:28:19;;;;;;;7.63;5.20;;;15.30;96.20;;;;;;4993401;28;20088;-80
2022/04/30 15:30:47;;;;;;;8.95;6.20;;;14.80;97.20;;;;;;4993266;28;20141;-79
2022/04/30 15:33:14;;;;;;;7.80;5.10;;;14.70;96.60;;;;;;4993330;28;20175;-80
2022/04/30 15:35:41;;;;;;;8.00;4.90;;;14.80;97.20;;;;;;4993995;28;20081;-81
2022/04/30 15:38:09;;;;;;;6.85;4.38;;;14.80;96.40;;;;;;4994040;28;20171;-79
2022/04/30 15:40:36;;;;;;;6.95;4.53;;;14.60;96.70;;;;;;4993426;28;20488;-80
2022/04/30 15:43:06;;;;;;;5.72;4.28;;;14.40;96.40;;;;;;4993761;28;20484;-79
2022/04/30 15:45:33;;;;;;;6.65;4.40;;;14.30;96.10;;;;;;4995031;28;20129;-78
2022/04/30 15:53:50;;;;;;;6.63;4.60;;;15.20;95.60;;;;;;4988923;28;20050;-78
2022/04/30 15:56:20;;;;;;;5.65;4.20;;;15.10;94.70;;;;;;4995631;28;20496;-79
2022/04/30 15:58:49;;;;;;;5.68;3.90;;;14.50;95.40;;;;;;4995691;28;20504;-78
2022/04/30 16:01:17;;;;;;;5.32;3.40;;;14.20;95.80;;;;;;4992606;28;20066;-78
2022/04/30 16:03:44;;;;;;;6.63;4.07;;;14.60;95.80;;;;;;4992124;28;20061;-79
2022/04/30 16:06:11;;;;;;;7.13;4.50;;;14.50;97.00;;;;;;4992592;28;20533;-78
2022/04/30 16:08:40;;;;;;;7.65;4.38;;;14.50;98.00;;;;;;4993180;28;20106;-78
2022/04/30 16:11:07;;;;;;;5.80;4.20;;;14.50;96.80;;;;;;4993644;28;20492;-81
2022/04/30 16:13:34;;;;;;;7.90;4.80;;;14.40;98.40;;;;;;4992891;28;20130;-78
2022/04/30 16:16:02;;;;;;;7.80;5.70;;;14.20;96.90;;;;;;4993594;28;20050;-79
2022/04/30 16:18:31;;;;;;;6.70;4.85;;;14.20;96.10;;;;;;4993448;28;20050;-80
2022/04/30 16:20:58;;;;;;;8.15;5.63;;;14.50;95.00;;;;;;4995352;28;20046;-79
2022/04/30 16:23:25;;;;;;;7.30;4.65;;;15.00;94.50;;;;;;4995469;28;20050;-80
2022/04/30 16:25:54;;;;;;;5.95;4.00;;;14.30;94.60;;;;;;4995565;28;20073;-77
2022/04/30 16:28:22;;;;;;;7.20;4.70;;;14.10;96.10;;;;;;4995035;28;20054;-79
2022/04/30 16:30:49;;;;;;;6.15;4.90;;;13.90;96.30;;;;;;4995065;28;20569;-79
2022/04/30 16:33:17;;;;;;;6.18;4.18;;;13.80;96.50;;;;;;4994944;28;20050;-79
2022/04/30 16:35:44;;;;;;;6.45;4.20;;;13.70;96.90;;;;;;4994985;28;20096;-80
2022/04/30 16:38:11;;;;;;;5.97;3.92;;;13.80;97.30;;;;;;4994863;28;20092;-79
2022/04/30 16:40:39;;;;;;;9.38;5.97;;;13.50;97.00;;;;;;4994736;28;20090;-78
2022/04/30 16:43:08;;;;;;;6.97;4.85;;;13.20;97.70;;;;;;4995051;28;20054;-81
2022/04/30 16:45:35;;;;;;;7.47;4.38;;;13.30;98.20;;;;;;4994969;28;20141;-78
2022/04/30 16:48:02;;;;;;;6.13;4.00;;;13.70;98.30;;;;;;4995301;28;20133;-79
2022/04/30 16:50:31;;;;;;;5.70;3.78;;;13.50;97.30;;;;;;4994896;28;20090;-78
2022/04/30 16:52:57;;;;;;;6.85;4.57;;;13.40;97.00;;;;;;4995080;28;20077;-79
2022/04/30 16:58:14;;;;;;;7.28;4.07;;;13.30;97.50;;;;;;4994695;28;20166;-80
2022/04/30 17:00:48;;;;;;;7.03;4.87;;;13.30;97.80;;;;;;4956896;28;1089987;-79
2022/04/30 17:03:15;;;;;;;;;;;12.90;99.10;;;;;;4996091;28;20128;-79
2022/04/30 17:05:42;;;;;;;7.50;5.35;;;12.70;99.70;;;;;;4995482;28;19972;-78
2022/04/30 17:08:10;;;;;;;7.63;5.07;;;12.60;99.90;;;;;;4995580;28;20460;-79
2022/04/30 17:10:37;;;;;;;7.95;5.13;;;12.80;99.90;;;;;;4995560;28;20415;-79
2022/04/30 17:13:05;;;;;;;7.95;5.72;;;12.80;99.90;;;;;;4995714;28;20050;-78
2022/04/30 17:15:33;;;;;;;9.07;6.20;;;12.80;99.90;;;;;;4995605;28;20073;-79
2022/04/30 17:18:00;;;;;;;9.23;6.30;;;12.70;99.90;;;;;;4995391;28;20086;-78
2022/04/30 17:20:28;;;;;;;7.95;5.97;;;12.50;99.90;;;;;;4995622;28;20142;-79
2022/04/30 17:22:56;;;;;;;7.90;5.63;;;12.60;99.90;;;;;;4995386;28;20081;-78
2022/04/30 17:25:23;;;;;;;7.10;5.20;;;12.60;99.90;;;;;;4996193;28;20076;-79
2022/04/30 17:27:51;;;;;;;7.60;5.50;;;12.60;99.90;;;;;;4995966;28;20058;-76
2022/04/30 17:30:18;;;;;;;8.27;5.40;;;12.50;99.90;;;;;;4994821;28;20257;-80
2022/04/30 17:38:17;;;;;;;9.60;7.05;;;12.50;99.90;;;;;;4995358;28;20443;-78
2022/04/30 17:40:44;;;;;;;9.85;6.80;;;12.30;99.90;;;;;;4995331;28;20046;-78
2022/04/30 17:43:15;;;;;;;8.52;6.57;;;12.20;99.90;;;;;;4995178;28;20448;-80
2022/04/30 17:45:43;;;;;;;11.02;7.45;;;12.10;99.90;;;;;;4995179;28;20416;-80
2022/04/30 17:48:15;;;;;;;9.73;7.03;;;12.00;99.90;;;;;;4994785;28;20050;-78
2022/04/30 17:50:45;;;;;;;9.43;6.20;;;12.10;99.90;;;;;;4995062;28;20058;-79
2022/04/30 17:53:35;;;;;;;9.20;6.53;;;12.30;99.90;;;;;;4994908;28;20058;-79
2022/04/30 17:56:02;;;;;;;11.05;6.50;;;12.20;99.90;;;;;;4989462;28;20484;-79
2022/04/30 17:58:29;;;;;;;10.38;6.90;;;12.50;99.90;;;;;;4994936;28;20523;-79
2022/04/30 18:00:56;;;;;;;9.13;6.68;;;12.30;99.90;;;;;;4994767;28;20468;-81
2022/04/30 18:03:25;;;;;;;9.40;6.72;;;12.30;99.90;;;;;;4995171;28;20130;-78
2022/04/30 18:05:52;;;;;;;10.45;6.63;;;12.30;99.90;;;;;;4994731;28;20081;-78
2022/04/30 18:08:19;;;;;;;10.48;6.72;;;12.20;99.90;;;;;;4994863;28;20046;-82
2022/04/30 18:10:47;;;;;;;9.25;6.70;;;12.20;99.90;;;;;;4993368;28;20149;-78
2022/04/30 18:13:16;;;;;;;11.25;7.78;;;12.20;99.90;;;;;;4994399;28;20497;-78
2022/04/30 18:15:48;;;;;;;11.75;8.55;;;11.80;99.90;;;;;;4994749;28;20078;-79
2022/04/30 18:18:15;;;;;;;11.88;8.30;;;11.40;99.90;;;;;;4994229;28;20125;-81
2022/04/30 18:20:44;;;;;;;10.77;7.32;;;11.50;99.90;;;;;;4994476;28;20519;-78
2022/04/30 18:23:12;;;;;;;10.45;7.47;;;11.60;99.90;;;;;;4994837;28;20052;-80
2022/04/30 18:25:39;;;;;;;11.27;8.63;;;11.40;99.90;;;;;;4994728;28;20054;-79